Terminal Aerodrome Forecast
Issued by NWS

Home | Current Version | Previous Version | Text Only | Print | Product List | Glossary On
Versions: 1 2 3 4 5 6 7 8 9 10 11 12 13 14 15
000
FTUS46 KPDT 051123
TAFYKM
TAF
KYKM 051123Z 0512/0612 23006KT P6SM SKC
     FM051800 30009KT P6SM SCT100
     FM060400 30008KT P6SM SCT100 BKN150=

USA.gov is the U.S. government's official web portal to all federal, state and local government web resources and services.